This is the latest recevied weather packets stored in our database for station/object AI5KP-13. If no packets are shown the sender has not sent any weather packets the latest 1 day(s).
| Time | Temp. | Humidity | Pressure | Rain* | Wind** | Luminosity | Snow |
|---|---|---|---|---|---|---|---|
| 1778103638 | 16.11° C | 59% | 1014.4 hPa | 0 mm | - | 179 W/m² | - |
| 1778103033 | 16.11° C | 59% | 1014.6 hPa | 0 mm | - | 254 W/m² | - |
| 1778102121 | 15.56° C | 59% | 1014.5 hPa | 0 mm | - | 279 W/m² | - |
| 1778100908 | 15° C | 59% | 1014.9 hPa | 0 mm | - | 163 W/m² | - |
| 1778100302 | 15.56° C | 59% | 1014.7 hPa | 0 mm | - | 180 W/m² | - |
| 1778098786 | 15° C | 62% | 1015.6 hPa | 0 mm | - | 244 W/m² | - |
| 1778098484 | 15.56° C | 62% | 1015.6 hPa | 0 mm | - | 225 W/m² | - |
| 1778097877 | 15.56° C | 58% | 1015.8 hPa | 0 mm | - | 170 W/m² | - |
| 1778096664 | 15.56° C | 56% | 1016 hPa | 0 mm | - | 229 W/m² | - |
| 1778096356 | 15.56° C | 57% | 1016.3 hPa | 0 mm | - | 288 W/m² | - |
| 1778096053 | 16.67° C | 52% | 1016.3 hPa | 0 mm | - | 550 W/m² | - |
| 1778092110 | 14.44° C | 63% | 1016.6 hPa | 0 mm | - | 600 W/m² | - |
| 1778091807 | 14.44° C | 66% | 1016.6 hPa | 0 mm | - | 328 W/m² | - |
| 1778091505 | 14.44° C | 64% | 1016.6 hPa | 0 mm | - | 339 W/m² | - |
| 1778090595 | 15° C | 65% | 1016.7 hPa | 0 mm | - | 255 W/m² | - |
| 1778088474 | 14.44° C | 66% | 1017.5 hPa | 0 mm | - | 280 W/m² | - |
| 1778088171 | 13.89° C | 65% | 1017.3 hPa | 0 mm | - | 354 W/m² | - |
| 1778086052 | 13.33° C | 67% | 1016.9 hPa | 0 mm | - | 258 W/m² | - |
| 1778085140 | 13.33° C | 67% | 1016.9 hPa | 0 mm | - | 314 W/m² | - |
| 1778084534 | 12.78° C | 67% | 1016.6 hPa | 0 mm | - | 298 W/m² | - |
| 1778084231 | 12.22° C | 69% | 1016.4 hPa | 0 mm | - | 318 W/m² | - |
| 1778083016 | 12.22° C | 69% | 1016.6 hPa | 0 mm | - | 205 W/m² | - |
| 1778080974 | 11.67° C | 70% | 1016.2 hPa | 0 mm | - | 257 W/m² | - |
| 1778080673 | 11.67° C | 71% | 1015.9 hPa | 0 mm | - | 314 W/m² | - |
| 1778080369 | 11.67° C | 71% | 1016.4 hPa | 0 mm | - | 305 W/m² | - |
* Rain latest hour (hover to see other rain measurements)
** Current wind speed in m/s (hover to see current wind gust speed)